PKWA TAF

84.9 °F / 29.4 °C
Calm
71%
74.5°F / 23.6 °C
29.77" (1008 mb)
10 mile(s)
clear
2018.07.22 0340 UTC

PKWA TAF

2018/07/21 18:26
TAF PKWA 211720Z 2118/2218 11011KT P6SM VCSH FEW024 SCT050 BKN140